sensor_id;sensor_type;location;lat;lon;timestamp;pressure;altitude;pressure_sealevel;temperature;humidity
39739;BME280;25422;48.286;8.484;2023-08-06T00:01:24;93428.88;;;12.57;100.00
39739;BME280;25422;48.286;8.484;2023-08-06T00:03:50;93428.88;;;12.50;100.00
39739;BME280;25422;48.286;8.484;2023-08-06T00:06:16;93426.25;;;12.43;100.00
39739;BME280;25422;48.286;8.484;2023-08-06T00:08:41;93423.63;;;12.43;100.00
39739;BME280;25422;48.286;8.484;2023-08-06T00:11:07;93420.81;;;12.52;100.00
39739;BME280;25422;48.286;8.484;2023-08-06T00:13:32;93423.22;;;12.46;100.00
39739;BME280;25422;48.286;8.484;2023-08-06T00:16:13;93415.34;;;12.46;100.00
39739;BME280;25422;48.286;8.484;2023-08-06T00:18:39;93402.84;;;12.48;100.00
39739;BME280;25422;48.286;8.484;2023-08-06T00:21:05;93411.91;;;12.46;100.00
39739;BME280;25422;48.286;8.484;2023-08-06T00:23:30;93412.53;;;12.41;100.00
39739;BME280;25422;48.286;8.484;2023-08-06T00:25:56;93411.13;;;12.39;100.00
39739;BME280;25422;48.286;8.484;2023-08-06T00:28:21;93405.84;;;12.32;100.00
39739;BME280;25422;48.286;8.484;2023-08-06T00:30:52;93399.75;;;12.25;100.00
39739;BME280;25422;48.286;8.484;2023-08-06T00:33:18;93401.97;;;12.14;100.00
39739;BME280;25422;48.286;8.484;2023-08-06T00:35:43;93399.38;;;12.21;100.00
39739;BME280;25422;48.286;8.484;2023-08-06T00:38:08;93400.56;;;12.19;100.00
39739;BME280;25422;48.286;8.484;2023-08-06T00:40:34;93403.41;;;12.17;100.00
39739;BME280;25422;48.286;8.484;2023-08-06T00:42:59;93396.28;;;12.04;100.00
39739;BME280;25422;48.286;8.484;2023-08-06T00:45:25;93401.88;;;11.88;100.00
39739;BME280;25422;48.286;8.484;2023-08-06T00:47:51;93391.56;;;11.79;100.00
39739;BME280;25422;48.286;8.484;2023-08-06T00:50:17;93394.75;;;11.68;100.00
39739;BME280;25422;48.286;8.484;2023-08-06T00:52:43;93394.19;;;11.79;100.00
39739;BME280;25422;48.286;8.484;2023-08-06T00:55:08;93397.19;;;11.76;100.00
39739;BME280;25422;48.286;8.484;2023-08-06T00:57:35;93400.78;;;11.69;100.00
39739;BME280;25422;48.286;8.484;2023-08-06T01:00:00;93399.13;;;11.61;100.00
39739;BME280;25422;48.286;8.484;2023-08-06T01:02:26;93391.91;;;11.63;100.00
39739;BME280;25422;48.286;8.484;2023-08-06T01:04:51;93388.81;;;11.53;100.00
39739;BME280;25422;48.286;8.484;2023-08-06T01:13:13;93382.47;;;11.34;100.00
39739;BME280;25422;48.286;8.484;2023-08-06T01:15:46;93382.72;;;11.39;100.00
39739;BME280;25422;48.286;8.484;2023-08-06T01:18:12;93382.13;;;11.37;100.00
39739;BME280;25422;48.286;8.484;2023-08-06T01:20:38;93368.22;;;11.43;100.00
39739;BME280;25422;48.286;8.484;2023-08-06T01:23:03;93357.56;;;11.44;100.00
39739;BME280;25422;48.286;8.484;2023-08-06T01:25:53;93351.53;;;11.51;100.00
39739;BME280;25422;48.286;8.484;2023-08-06T01:28:54;93347.91;;;11.45;100.00
39739;BME280;25422;48.286;8.484;2023-08-06T01:31:28;93351.88;;;11.34;100.00
39739;BME280;25422;48.286;8.484;2023-08-06T01:33:56;93348.06;;;11.37;100.00
39739;BME280;25422;48.286;8.484;2023-08-06T01:36:22;93347.47;;;11.41;100.00
39739;BME280;25422;48.286;8.484;2023-08-06T01:38:51;93342.63;;;11.38;100.00
39739;BME280;25422;48.286;8.484;2023-08-06T01:41:17;93347.25;;;11.36;100.00
39739;BME280;25422;48.286;8.484;2023-08-06T01:43:42;93339.34;;;11.29;100.00
39739;BME280;25422;48.286;8.484;2023-08-06T01:46:08;93340.19;;;11.30;100.00
39739;BME280;25422;48.286;8.484;2023-08-06T01:48:33;93348.88;;;11.37;100.00
39739;BME280;25422;48.286;8.484;2023-08-06T01:50:59;93345.44;;;11.37;100.00
39739;BME280;25422;48.286;8.484;2023-08-06T01:53:24;93341.00;;;11.37;100.00
39739;BME280;25422;48.286;8.484;2023-08-06T01:55:51;93336.78;;;11.36;100.00
39739;BME280;25422;48.286;8.484;2023-08-06T01:58:16;93336.78;;;11.36;100.00
39739;BME280;25422;48.286;8.484;2023-08-06T02:00:42;93340.41;;;11.42;100.00
39739;BME280;25422;48.286;8.484;2023-08-06T02:03:07;93322.09;;;11.42;100.00
39739;BME280;25422;48.286;8.484;2023-08-06T02:05:33;93316.91;;;11.55;100.00
39739;BME280;25422;48.286;8.484;2023-08-06T02:07:58;93327.19;;;11.63;100.00
39739;BME280;25422;48.286;8.484;2023-08-06T02:10:23;93331.91;;;11.81;100.00
39739;BME280;25422;48.286;8.484;2023-08-06T02:12:49;93324.50;;;11.98;100.00
39739;BME280;25422;48.286;8.484;2023-08-06T02:15:14;93329.34;;;12.08;100.00
39739;BME280;25422;48.286;8.484;2023-08-06T02:17:40;93335.25;;;12.30;100.00
39739;BME280;25422;48.286;8.484;2023-08-06T02:20:06;93337.47;;;12.47;100.00
39739;BME280;25422;48.286;8.484;2023-08-06T02:22:31;93342.91;;;12.59;100.00
39739;BME280;25422;48.286;8.484;2023-08-06T02:24:57;93348.97;;;12.59;100.00
39739;BME280;25422;48.286;8.484;2023-08-06T02:27:22;93345.94;;;12.62;100.00
39739;BME280;25422;48.286;8.484;2023-08-06T02:29:48;93360.09;;;12.55;100.00
39739;BME280;25422;48.286;8.484;2023-08-06T02:32:13;93346.34;;;12.39;100.00
39739;BME280;25422;48.286;8.484;2023-08-06T02:34:38;93348.16;;;12.32;100.00
39739;BME280;25422;48.286;8.484;2023-08-06T02:37:04;93354.41;;;12.31;100.00
39739;BME280;25422;48.286;8.484;2023-08-06T02:39:29;93345.53;;;12.25;100.00
39739;BME280;25422;48.286;8.484;2023-08-06T02:41:57;93338.06;;;12.16;100.00
39739;BME280;25422;48.286;8.484;2023-08-06T02:44:22;93324.31;;;12.07;100.00
39739;BME280;25422;48.286;8.484;2023-08-06T02:46:48;93317.63;;;11.97;100.00
39739;BME280;25422;48.286;8.484;2023-08-06T02:49:14;93318.00;;;11.88;100.00
39739;BME280;25422;48.286;8.484;2023-08-06T02:51:39;93313.56;;;11.81;100.00
39739;BME280;25422;48.286;8.484;2023-08-06T02:54:04;93313.56;;;11.81;100.00
39739;BME280;25422;48.286;8.484;2023-08-06T02:56:32;93316.16;;;11.75;100.00
39739;BME280;25422;48.286;8.484;2023-08-06T02:59:06;93322.38;;;11.67;100.00
39739;BME280;25422;48.286;8.484;2023-08-06T03:01:42;93320.38;;;11.62;100.00
39739;BME280;25422;48.286;8.484;2023-08-06T03:04:16;93333.47;;;11.62;100.00
39739;BME280;25422;48.286;8.484;2023-08-06T03:06:44;93318.13;;;11.59;100.00
39739;BME280;25422;48.286;8.484;2023-08-06T03:09:09;93323.78;;;11.63;100.00
39739;BME280;25422;48.286;8.484;2023-08-06T03:11:35;93339.06;;;11.53;100.00
39739;BME280;25422;48.286;8.484;2023-08-06T03:14:05;93346.88;;;11.46;100.00
39739;BME280;25422;48.286;8.484;2023-08-06T03:16:31;93354.94;;;11.44;100.00
39739;BME280;25422;48.286;8.484;2023-08-06T03:18:57;93356.72;;;11.37;100.00
39739;BME280;25422;48.286;8.484;2023-08-06T03:21:22;93346.22;;;11.30;100.00
39739;BME280;25422;48.286;8.484;2023-08-06T03:23:48;93335.47;;;11.19;100.00
39739;BME280;25422;48.286;8.484;2023-08-06T03:26:20;93332.97;;;11.04;100.00
39739;BME280;25422;48.286;8.484;2023-08-06T03:28:46;93325.25;;;10.89;100.00
39739;BME280;25422;48.286;8.484;2023-08-06T03:31:13;93333.25;;;10.80;100.00
39739;BME280;25422;48.286;8.484;2023-08-06T03:33:42;93328.97;;;10.73;100.00
39739;BME280;25422;48.286;8.484;2023-08-06T03:36:12;93328.06;;;10.59;100.00
39739;BME280;25422;48.286;8.484;2023-08-06T03:38:38;93318.00;;;10.56;100.00
39739;BME280;25422;48.286;8.484;2023-08-06T03:41:06;93325.16;;;10.47;100.00
39739;BME280;25422;48.286;8.484;2023-08-06T03:43:31;93319.56;;;10.50;100.00
39739;BME280;25422;48.286;8.484;2023-08-06T03:45:57;93333.19;;;10.45;100.00
39739;BME280;25422;48.286;8.484;2023-08-06T03:48:23;93326.72;;;10.41;100.00
39739;BME280;25422;48.286;8.484;2023-08-06T03:50:48;93319.88;;;10.40;100.00
39739;BME280;25422;48.286;8.484;2023-08-06T03:53:16;93314.84;;;10.39;100.00
39739;BME280;25422;48.286;8.484;2023-08-06T03:55:41;93312.03;;;10.40;100.00
39739;BME280;25422;48.286;8.484;2023-08-06T03:58:07;93299.34;;;10.37;100.00
39739;BME280;25422;48.286;8.484;2023-08-06T04:00:33;93295.75;;;10.38;100.00
39739;BME280;25422;48.286;8.484;2023-08-06T04:02:58;93310.63;;;10.38;100.00
39739;BME280;25422;48.286;8.484;2023-08-06T04:05:24;93306.13;;;10.32;100.00
39739;BME280;25422;48.286;8.484;2023-08-06T04:07:49;93307.75;;;10.33;100.00
39739;BME280;25422;48.286;8.484;2023-08-06T04:10:15;93309.19;;;10.35;100.00
39739;BME280;25422;48.286;8.484;2023-08-06T04:12:40;93311.53;;;10.30;100.00
39739;BME280;25422;48.286;8.484;2023-08-06T04:15:06;93297.28;;;10.33;100.00
39739;BME280;25422;48.286;8.484;2023-08-06T04:17:31;93309.31;;;10.27;100.00
39739;BME280;25422;48.286;8.484;2023-08-06T04:19:57;93307.63;;;10.19;100.00
39739;BME280;25422;48.286;8.484;2023-08-06T04:22:25;93304.75;;;10.14;100.00
39739;BME280;25422;48.286;8.484;2023-08-06T04:24:51;93306.78;;;10.12;100.00
39739;BME280;25422;48.286;8.484;2023-08-06T04:27:18;93313.78;;;10.11;100.00
39739;BME280;25422;48.286;8.484;2023-08-06T04:29:44;93311.63;;;10.15;100.00
39739;BME280;25422;48.286;8.484;2023-08-06T04:32:12;93306.84;;;10.19;100.00
39739;BME280;25422;48.286;8.484;2023-08-06T04:34:41;93312.84;;;10.19;100.00
39739;BME280;25422;48.286;8.484;2023-08-06T04:37:08;93305.06;;;10.26;100.00
39739;BME280;25422;48.286;8.484;2023-08-06T04:39:34;93309.72;;;10.30;100.00
39739;BME280;25422;48.286;8.484;2023-08-06T04:42:00;93317.03;;;10.35;100.00
39739;BME280;25422;48.286;8.484;2023-08-06T04:44:26;93313.06;;;10.39;100.00
39739;BME280;25422;48.286;8.484;2023-08-06T04:46:51;93312.28;;;10.45;100.00
39739;BME280;25422;48.286;8.484;2023-08-06T04:49:18;93323.22;;;10.56;100.00
39739;BME280;25422;48.286;8.484;2023-08-06T04:51:43;93314.94;;;10.52;100.00
39739;BME280;25422;48.286;8.484;2023-08-06T04:54:09;93318.78;;;10.56;100.00
39739;BME280;25422;48.286;8.484;2023-08-06T04:56:35;93316.66;;;10.67;100.00
39739;BME280;25422;48.286;8.484;2023-08-06T04:59:03;93304.63;;;10.72;100.00
39739;BME280;25422;48.286;8.484;2023-08-06T05:01:30;93315.09;;;10.72;100.00
39739;BME280;25422;48.286;8.484;2023-08-06T05:03:57;93313.91;;;10.75;100.00
39739;BME280;25422;48.286;8.484;2023-08-06T05:06:24;93313.06;;;10.68;100.00
39739;BME280;25422;48.286;8.484;2023-08-06T05:08:52;93303.00;;;10.71;100.00
39739;BME280;25422;48.286;8.484;2023-08-06T05:11:19;93315.09;;;10.72;100.00
39739;BME280;25422;48.286;8.484;2023-08-06T05:13:47;93311.09;;;10.76;100.00
39739;BME280;25422;48.286;8.484;2023-08-06T05:16:12;93320.97;;;10.81;100.00
39739;BME280;25422;48.286;8.484;2023-08-06T05:18:42;93324.00;;;10.85;100.00
39739;BME280;25422;48.286;8.484;2023-08-06T05:21:09;93318.81;;;10.91;100.00
39739;BME280;25422;48.286;8.484;2023-08-06T05:23:36;93322.25;;;10.92;100.00
39739;BME280;25422;48.286;8.484;2023-08-06T05:26:02;93328.94;;;11.01;100.00
39739;BME280;25422;48.286;8.484;2023-08-06T05:28:30;93328.59;;;11.11;100.00
39739;BME280;25422;48.286;8.484;2023-08-06T05:30:55;93327.56;;;11.05;100.00
39739;BME280;25422;48.286;8.484;2023-08-06T05:33:21;93335.59;;;11.04;100.00
39739;BME280;25422;48.286;8.484;2023-08-06T05:35:46;93336.78;;;11.01;100.00
39739;BME280;25422;48.286;8.484;2023-08-06T05:38:16;93347.41;;;10.93;100.00
39739;BME280;25422;48.286;8.484;2023-08-06T05:40:46;93348.34;;;10.78;100.00
39739;BME280;25422;48.286;8.484;2023-08-06T05:43:16;93348.94;;;10.80;100.00
39739;BME280;25422;48.286;8.484;2023-08-06T05:45:51;93348.50;;;10.70;100.00
39739;BME280;25422;48.286;8.484;2023-08-06T05:48:18;93355.41;;;10.56;100.00
39739;BME280;25422;48.286;8.484;2023-08-06T05:50:52;93351.66;;;10.66;100.00
39739;BME280;25422;48.286;8.484;2023-08-06T05:53:26;93348.84;;;10.67;100.00
39739;BME280;25422;48.286;8.484;2023-08-06T05:55:52;93357.53;;;10.68;100.00
39739;BME280;25422;48.286;8.484;2023-08-06T05:58:20;93355.91;;;10.67;100.00
39739;BME280;25422;48.286;8.484;2023-08-06T06:00:46;93352.25;;;10.61;100.00
39739;BME280;25422;48.286;8.484;2023-08-06T06:03:15;93352.59;;;10.58;100.00
39739;BME280;25422;48.286;8.484;2023-08-06T06:05:42;93356.25;;;10.57;100.00
39739;BME280;25422;48.286;8.484;2023-08-06T06:08:27;93356.09;;;10.65;100.00
39739;BME280;25422;48.286;8.484;2023-08-06T06:10:55;93349.47;;;10.69;100.00
39739;BME280;25422;48.286;8.484;2023-08-06T06:13:22;93365.59;;;10.73;100.00
39739;BME280;25422;48.286;8.484;2023-08-06T06:15:48;93358.56;;;10.73;100.00
39739;BME280;25422;48.286;8.484;2023-08-06T06:18:15;93357.94;;;10.71;100.00
39739;BME280;25422;48.286;8.484;2023-08-06T06:20:43;93376.50;;;10.76;100.00
39739;BME280;25422;48.286;8.484;2023-08-06T06:23:13;93375.75;;;10.83;100.00
39739;BME280;25422;48.286;8.484;2023-08-06T06:25:43;93368.34;;;10.93;100.00
39739;BME280;25422;48.286;8.484;2023-08-06T06:28:10;93374.47;;;11.00;100.00
39739;BME280;25422;48.286;8.484;2023-08-06T06:30:40;93368.16;;;10.94;100.00
39739;BME280;25422;48.286;8.484;2023-08-06T06:33:07;93381.28;;;10.73;100.00
39739;BME280;25422;48.286;8.484;2023-08-06T06:35:33;93377.91;;;10.79;100.00
39739;BME280;25422;48.286;8.484;2023-08-06T06:38:02;93378.63;;;10.66;100.00
39739;BME280;25422;48.286;8.484;2023-08-06T06:40:28;93382.75;;;10.54;100.00
39739;BME280;25422;48.286;8.484;2023-08-06T06:42:54;93381.00;;;10.61;100.00
39739;BME280;25422;48.286;8.484;2023-08-06T06:45:20;93386.78;;;10.56;100.00
39739;BME280;25422;48.286;8.484;2023-08-06T06:47:47;93383.53;;;10.76;100.00
39739;BME280;25422;48.286;8.484;2023-08-06T06:50:13;93377.91;;;11.07;100.00
39739;BME280;25422;48.286;8.484;2023-08-06T06:52:41;93374.97;;;11.24;100.00
39739;BME280;25422;48.286;8.484;2023-08-06T06:55:12;93376.91;;;11.50;100.00
39739;BME280;25422;48.286;8.484;2023-08-06T06:57:38;93376.56;;;11.60;100.00
39739;BME280;25422;48.286;8.484;2023-08-06T07:00:05;93366.78;;;11.89;100.00
39739;BME280;25422;48.286;8.484;2023-08-06T07:02:31;93369.78;;;11.79;100.00
39739;BME280;25422;48.286;8.484;2023-08-06T07:04:58;93381.81;;;11.60;100.00
39739;BME280;25422;48.286;8.484;2023-08-06T07:07:25;93378.88;;;11.35;100.00
39739;BME280;25422;48.286;8.484;2023-08-06T07:09:55;93387.56;;;11.07;100.00
39739;BME280;25422;48.286;8.484;2023-08-06T07:12:26;93387.44;;;10.87;100.00
39739;BME280;25422;48.286;8.484;2023-08-06T07:14:52;93385.06;;;10.63;100.00
39739;BME280;25422;48.286;8.484;2023-08-06T07:17:18;93401.13;;;10.60;100.00
39739;BME280;25422;48.286;8.484;2023-08-06T07:19:46;93414.13;;;10.54;100.00
39739;BME280;25422;48.286;8.484;2023-08-06T07:22:11;93411.28;;;10.49;100.00
39739;BME280;25422;48.286;8.484;2023-08-06T07:24:37;93405.03;;;10.50;100.00
39739;BME280;25422;48.286;8.484;2023-08-06T07:27:06;93409.28;;;10.51;100.00
39739;BME280;25422;48.286;8.484;2023-08-06T07:29:31;93413.91;;;10.49;100.00
39739;BME280;25422;48.286;8.484;2023-08-06T07:31:57;93412.94;;;10.56;100.00
39739;BME280;25422;48.286;8.484;2023-08-06T07:34:22;93411.75;;;10.59;100.00
39739;BME280;25422;48.286;8.484;2023-08-06T07:36:48;93416.06;;;10.67;100.00
39739;BME280;25422;48.286;8.484;2023-08-06T07:39:13;93408.53;;;10.78;100.00
39739;BME280;25422;48.286;8.484;2023-08-06T07:41:39;93414.31;;;10.74;100.00
39739;BME280;25422;48.286;8.484;2023-08-06T07:44:06;93415.22;;;10.88;100.00
39739;BME280;25422;48.286;8.484;2023-08-06T07:46:32;93417.72;;;10.96;100.00
39739;BME280;25422;48.286;8.484;2023-08-06T07:48:57;93408.47;;;11.00;100.00
39739;BME280;25422;48.286;8.484;2023-08-06T07:51:23;93405.63;;;10.95;100.00
39739;BME280;25422;48.286;8.484;2023-08-06T07:53:48;93407.56;;;10.86;100.00
39739;BME280;25422;48.286;8.484;2023-08-06T07:56:14;93398.66;;;10.80;100.00
39739;BME280;25422;48.286;8.484;2023-08-06T07:58:39;93400.03;;;10.76;100.00
39739;BME280;25422;48.286;8.484;2023-08-06T08:01:06;93406.91;;;10.77;100.00
39739;BME280;25422;48.286;8.484;2023-08-06T08:03:31;93401.91;;;10.83;100.00
39739;BME280;25422;48.286;8.484;2023-08-06T08:05:57;93405.44;;;10.96;100.00
39739;BME280;25422;48.286;8.484;2023-08-06T08:08:23;93429.41;;;11.00;100.00
39739;BME280;25422;48.286;8.484;2023-08-06T08:10:49;93419.31;;;10.97;100.00
39739;BME280;25422;48.286;8.484;2023-08-06T08:13:16;93411.59;;;10.89;100.00
39739;BME280;25422;48.286;8.484;2023-08-06T08:15:42;93412.84;;;10.93;100.00
39739;BME280;25422;48.286;8.484;2023-08-06T08:18:07;93421.81;;;10.84;100.00
39739;BME280;25422;48.286;8.484;2023-08-06T08:20:33;93416.41;;;10.85;100.00
39739;BME280;25422;48.286;8.484;2023-08-06T08:23:00;93419.34;;;11.04;100.00
39739;BME280;25422;48.286;8.484;2023-08-06T08:25:26;93420.72;;;11.28;100.00
39739;BME280;25422;48.286;8.484;2023-08-06T08:27:52;93412.28;;;11.33;100.00
39739;BME280;25422;48.286;8.484;2023-08-06T08:30:18;93422.78;;;11.39;100.00
39739;BME280;25422;48.286;8.484;2023-08-06T08:32:43;93412.16;;;11.41;100.00
39739;BME280;25422;48.286;8.484;2023-08-06T08:35:08;93420.56;;;11.36;100.00
39739;BME280;25422;48.286;8.484;2023-08-06T08:37:34;93431.69;;;11.38;100.00
39739;BME280;25422;48.286;8.484;2023-08-06T08:39:59;93426.72;;;11.57;100.00
39739;BME280;25422;48.286;8.484;2023-08-06T08:42:26;93435.22;;;11.59;100.00
39739;BME280;25422;48.286;8.484;2023-08-06T08:44:52;93440.28;;;11.67;100.00
39739;BME280;25422;48.286;8.484;2023-08-06T08:47:19;93444.28;;;11.63;100.00
39739;BME280;25422;48.286;8.484;2023-08-06T08:49:44;93436.38;;;11.91;100.00
39739;BME280;25422;48.286;8.484;2023-08-06T08:52:14;93445.66;;;11.94;100.00
39739;BME280;25422;48.286;8.484;2023-08-06T08:54:40;93451.47;;;11.89;100.00
39739;BME280;25422;48.286;8.484;2023-08-06T08:57:06;93443.13;;;11.72;100.00
39739;BME280;25422;48.286;8.484;2023-08-06T08:59:35;93446.00;;;11.77;100.00
39739;BME280;25422;48.286;8.484;2023-08-06T09:02:01;93450.03;;;11.87;100.00
39739;BME280;25422;48.286;8.484;2023-08-06T09:04:29;93450.38;;;11.70;100.00
39739;BME280;25422;48.286;8.484;2023-08-06T09:06:57;93452.34;;;11.61;100.00
39739;BME280;25422;48.286;8.484;2023-08-06T09:09:29;93457.75;;;11.53;100.00
39739;BME280;25422;48.286;8.484;2023-08-06T09:12:00;93445.53;;;11.67;100.00
39739;BME280;25422;48.286;8.484;2023-08-06T09:14:26;93452.69;;;11.93;100.00
39739;BME280;25422;48.286;8.484;2023-08-06T09:16:52;93455.13;;;11.95;100.00
39739;BME280;25422;48.286;8.484;2023-08-06T09:19:18;93447.22;;;11.81;100.00
39739;BME280;25422;48.286;8.484;2023-08-06T09:21:45;93458.00;;;11.65;100.00
39739;BME280;25422;48.286;8.484;2023-08-06T09:24:15;93462.59;;;11.56;100.00
39739;BME280;25422;48.286;8.484;2023-08-06T09:26:47;93459.97;;;11.56;100.00
39739;BME280;25422;48.286;8.484;2023-08-06T09:29:12;93468.44;;;11.58;100.00
39739;BME280;25422;48.286;8.484;2023-08-06T09:31:50;93474.84;;;11.49;100.00
39739;BME280;25422;48.286;8.484;2023-08-06T09:34:22;93474.50;;;11.59;100.00
39739;BME280;25422;48.286;8.484;2023-08-06T09:36:49;93480.09;;;11.49;100.00
39739;BME280;25422;48.286;8.484;2023-08-06T09:39:17;93488.59;;;11.58;100.00
39739;BME280;25422;48.286;8.484;2023-08-06T09:41:44;93490.19;;;11.52;100.00
39739;BME280;25422;48.286;8.484;2023-08-06T09:44:20;93495.50;;;11.66;100.00
39739;BME280;25422;48.286;8.484;2023-08-06T09:46:55;93492.38;;;11.84;100.00
39739;BME280;25422;48.286;8.484;2023-08-06T09:49:25;93490.69;;;11.76;100.00
39739;BME280;25422;48.286;8.484;2023-08-06T09:51:51;93493.81;;;11.93;100.00
39739;BME280;25422;48.286;8.484;2023-08-06T09:54:19;93498.19;;;11.79;100.00
39739;BME280;25422;48.286;8.484;2023-08-06T09:56:44;93497.13;;;11.73;100.00
39739;BME280;25422;48.286;8.484;2023-08-06T09:59:10;93500.44;;;11.82;100.00
39739;BME280;25422;48.286;8.484;2023-08-06T10:01:36;93504.19;;;12.01;100.00
39739;BME280;25422;48.286;8.484;2023-08-06T10:04:03;93507.69;;;11.87;100.00
39739;BME280;25422;48.286;8.484;2023-08-06T10:06:31;93509.72;;;11.85;100.00
39739;BME280;25422;48.286;8.484;2023-08-06T10:09:02;93514.66;;;12.01;100.00
39739;BME280;25422;48.286;8.484;2023-08-06T10:11:29;93487.84;;;12.06;100.00
39739;BME280;25422;48.286;8.484;2023-08-06T10:14:12;93502.50;;;11.93;100.00
39739;BME280;25422;48.286;8.484;2023-08-06T10:16:42;93500.47;;;11.89;100.00
39739;BME280;25422;48.286;8.484;2023-08-06T10:19:11;93503.16;;;11.67;100.00
39739;BME280;25422;48.286;8.484;2023-08-06T10:21:40;93500.38;;;11.75;100.00
39739;BME280;25422;48.286;8.484;2023-08-06T10:24:09;93509.09;;;11.82;100.00
39739;BME280;25422;48.286;8.484;2023-08-06T10:26:40;93501.38;;;11.74;100.00
39739;BME280;25422;48.286;8.484;2023-08-06T10:29:35;93503.19;;;12.02;100.00
39739;BME280;25422;48.286;8.484;2023-08-06T10:32:01;93511.66;;;11.76;100.00
39739;BME280;25422;48.286;8.484;2023-08-06T10:34:56;93508.94;;;11.91;100.00
39739;BME280;25422;48.286;8.484;2023-08-06T10:37:25;93513.34;;;11.84;100.00
39739;BME280;25422;48.286;8.484;2023-08-06T10:39:59;93511.03;;;11.67;100.00
39739;BME280;25422;48.286;8.484;2023-08-06T10:42:28;93521.00;;;11.85;100.00
39739;BME280;25422;48.286;8.484;2023-08-06T10:47:39;93529.44;;;11.80;100.00
39739;BME280;25422;48.286;8.484;2023-08-06T10:50:07;93546.09;;;11.94;100.00
39739;BME280;25422;48.286;8.484;2023-08-06T10:52:34;93542.16;;;12.12;100.00
39739;BME280;25422;48.286;8.484;2023-08-06T10:55:00;93524.94;;;12.03;100.00
39739;BME280;25422;48.286;8.484;2023-08-06T10:57:25;93540.66;;;11.96;100.00
39739;BME280;25422;48.286;8.484;2023-08-06T10:59:50;93547.22;;;11.85;100.00
39739;BME280;25422;48.286;8.484;2023-08-06T11:02:16;93543.72;;;11.71;100.00
39739;BME280;25422;48.286;8.484;2023-08-06T11:04:41;93533.88;;;11.80;100.00
39739;BME280;25422;48.286;8.484;2023-08-06T11:07:07;93544.09;;;11.68;100.00
39739;BME280;25422;48.286;8.484;2023-08-06T11:09:32;93551.91;;;11.61;100.00
39739;BME280;25422;48.286;8.484;2023-08-06T11:11:58;93557.69;;;11.57;100.00
39739;BME280;25422;48.286;8.484;2023-08-06T11:14:23;93576.47;;;11.60;100.00
39739;BME280;25422;48.286;8.484;2023-08-06T11:16:48;93564.72;;;11.78;100.00
39739;BME280;25422;48.286;8.484;2023-08-06T11:19:15;93565.63;;;11.63;100.00
39739;BME280;25422;48.286;8.484;2023-08-06T11:21:42;93567.41;;;11.91;100.00
39739;BME280;25422;48.286;8.484;2023-08-06T11:24:12;93556.66;;;11.79;100.00
39739;BME280;25422;48.286;8.484;2023-08-06T11:26:37;93567.72;;;11.75;100.00
39739;BME280;25422;48.286;8.484;2023-08-06T11:29:05;93576.72;;;11.94;100.00
39739;BME280;25422;48.286;8.484;2023-08-06T11:31:30;93569.56;;;11.81;100.00
39739;BME280;25422;48.286;8.484;2023-08-06T11:33:56;93596.44;;;11.61;100.00
39739;BME280;25422;48.286;8.484;2023-08-06T11:36:34;93593.06;;;10.96;100.00
39739;BME280;25422;48.286;8.484;2023-08-06T11:39:03;93600.94;;;10.81;100.00
39739;BME280;25422;48.286;8.484;2023-08-06T11:41:30;93605.63;;;10.86;100.00
39739;BME280;25422;48.286;8.484;2023-08-06T11:43:56;93612.34;;;10.73;100.00
39739;BME280;25422;48.286;8.484;2023-08-06T11:46:21;93616.63;;;10.59;100.00
39739;BME280;25422;48.286;8.484;2023-08-06T11:48:55;93607.75;;;10.60;100.00
39739;BME280;25422;48.286;8.484;2023-08-06T11:51:25;93616.31;;;10.69;100.00
39739;BME280;25422;48.286;8.484;2023-08-06T11:53:55;93622.06;;;10.79;100.00
39739;BME280;25422;48.286;8.484;2023-08-06T11:56:21;93625.47;;;10.95;100.00
39739;BME280;25422;48.286;8.484;2023-08-06T11:58:46;93623.63;;;10.95;100.00
39739;BME280;25422;48.286;8.484;2023-08-06T12:01:13;93633.31;;;10.95;100.00
39739;BME280;25422;48.286;8.484;2023-08-06T12:03:42;93645.63;;;11.01;100.00
39739;BME280;25422;48.286;8.484;2023-08-06T12:06:07;93642.56;;;11.12;100.00
39739;BME280;25422;48.286;8.484;2023-08-06T12:08:33;93635.84;;;10.88;100.00
39739;BME280;25422;48.286;8.484;2023-08-06T12:10:59;93638.59;;;10.80;100.00
39739;BME280;25422;48.286;8.484;2023-08-06T12:13:24;93646.09;;;10.68;100.00
39739;BME280;25422;48.286;8.484;2023-08-06T12:15:50;93649.53;;;10.54;100.00
39739;BME280;25422;48.286;8.484;2023-08-06T12:18:18;93647.94;;;10.38;100.00
39739;BME280;25422;48.286;8.484;2023-08-06T12:20:43;93644.75;;;10.42;100.00
39739;BME280;25422;48.286;8.484;2023-08-06T12:23:09;93646.47;;;10.50;100.00
39739;BME280;25422;48.286;8.484;2023-08-06T12:25:35;93661.09;;;10.59;100.00
39739;BME280;25422;48.286;8.484;2023-08-06T12:28:00;93666.44;;;10.73;100.00
39739;BME280;25422;48.286;8.484;2023-08-06T12:30:26;93659.50;;;10.80;100.00
39739;BME280;25422;48.286;8.484;2023-08-06T12:32:51;93653.88;;;10.98;100.00
39739;BME280;25422;48.286;8.484;2023-08-06T12:35:17;93651.41;;;11.11;100.00
39739;BME280;25422;48.286;8.484;2023-08-06T12:37:42;93642.63;;;11.69;100.00
39739;BME280;25422;48.286;8.484;2023-08-06T12:40:09;93644.28;;;11.70;100.00
39739;BME280;25422;48.286;8.484;2023-08-06T12:42:35;93646.84;;;11.42;100.00
39739;BME280;25422;48.286;8.484;2023-08-06T12:45:00;93630.91;;;11.65;100.00
39739;BME280;25422;48.286;8.484;2023-08-06T12:47:25;93648.13;;;11.96;100.00
39739;BME280;25422;48.286;8.484;2023-08-06T12:49:51;93648.97;;;11.75;100.00
39739;BME280;25422;48.286;8.484;2023-08-06T12:52:16;93646.28;;;11.68;100.00
39739;BME280;25422;48.286;8.484;2023-08-06T12:54:44;93642.13;;;12.02;100.00
39739;BME280;25422;48.286;8.484;2023-08-06T12:57:11;93647.25;;;11.89;100.00
39739;BME280;25422;48.286;8.484;2023-08-06T12:59:36;93634.66;;;11.77;100.00